createdAt,value
2018-05-23T00:00:39.455Z,102020.37
2018-05-23T00:03:06.907Z,102021.22
2018-05-23T00:05:34.350Z,102021.30
2018-05-23T00:08:01.781Z,102029.35
2018-05-23T00:10:29.231Z,102028.98
2018-05-23T00:12:56.667Z,102024.48
2018-05-23T00:15:24.111Z,102023.63
2018-05-23T00:17:51.545Z,102024.15
2018-05-23T00:20:19.004Z,102030.53
2018-05-23T00:22:46.476Z,102026.47
2018-05-23T00:25:15.954Z,102029.20
2018-05-23T00:27:43.371Z,102034.81
2018-05-23T00:30:10.825Z,102036.36
2018-05-23T00:32:38.242Z,102038.09
2018-05-23T00:35:06.636Z,102038.64
2018-05-23T00:37:34.076Z,102038.12
2018-05-23T00:40:02.457Z,102039.60
2018-05-23T00:42:29.983Z,102038.16
2018-05-23T00:44:57.426Z,102038.77
2018-05-23T00:47:24.850Z,102038.48
2018-05-23T00:49:52.313Z,102046.33
2018-05-23T00:52:19.742Z,102053.11
2018-05-23T00:54:58.772Z,102054.27
2018-05-23T00:57:26.255Z,102060.34
2018-05-23T00:59:53.693Z,102063.53
2018-05-23T01:02:21.151Z,102057.83
2018-05-23T01:04:48.580Z,102069.20
2018-05-23T01:07:17.024Z,102063.09
2018-05-23T01:09:44.445Z,102067.50
2018-05-23T01:12:12.846Z,102065.52
2018-05-23T01:14:42.172Z,102065.67
2018-05-23T01:17:09.622Z,102070.66
2018-05-23T01:19:37.056Z,102069.58
2018-05-23T01:22:04.511Z,102066.40
2018-05-23T01:24:31.926Z,102065.63
2018-05-23T01:27:00.137Z,102076.00
2018-05-23T01:29:28.275Z,102081.99
2018-05-23T01:31:55.704Z,102080.30
2018-05-23T01:34:23.157Z,102086.42
2018-05-23T01:36:50.592Z,102080.53
2018-05-23T01:39:18.043Z,102085.88
2018-05-23T01:41:46.430Z,102085.16
2018-05-23T01:44:13.882Z,102096.96
2018-05-23T01:46:41.323Z,102097.02
2018-05-23T01:49:20.570Z,102102.73
2018-05-23T01:51:48.798Z,102106.00
2018-05-23T01:54:16.269Z,102118.94
2018-05-23T01:56:43.689Z,102111.87
2018-05-23T01:59:11.202Z,102114.44
2018-05-23T02:01:38.569Z,102110.06
2018-05-23T02:04:06.034Z,102112.55
2018-05-23T02:06:33.472Z,102111.56
2018-05-23T02:09:00.927Z,102115.08
2018-05-23T02:11:28.368Z,102112.27
2018-05-23T02:13:55.840Z,102118.70
2018-05-23T02:16:23.930Z,102115.94
2018-05-23T02:18:51.390Z,102120.09
2018-05-23T02:21:18.830Z,102122.20
2018-05-23T02:23:47.254Z,102127.33
2018-05-23T02:26:14.706Z,102118.17
2018-05-23T02:28:42.130Z,102122.52
2018-05-23T02:31:09.599Z,102127.75
2018-05-23T02:33:37.036Z,102126.41
2018-05-23T02:36:04.495Z,102127.95
2018-05-23T02:38:31.910Z,102126.83
2018-05-23T02:40:59.380Z,102135.08
2018-05-23T02:43:26.810Z,102135.06
2018-05-23T02:45:54.263Z,102133.98
2018-05-23T02:48:21.695Z,102137.31
2018-05-23T02:50:49.154Z,102138.75
2018-05-23T02:53:16.579Z,102146.86
2018-05-23T02:55:44.038Z,102150.21
2018-05-23T02:58:11.482Z,102156.83
2018-05-23T03:00:38.970Z,102155.16
2018-05-23T03:03:06.535Z,102160.80
2018-05-23T03:05:33.888Z,102161.88
2018-05-23T03:08:01.338Z,102162.60
2018-05-23T03:10:28.798Z,102165.34
2018-05-23T03:12:56.221Z,102164.81
2018-05-23T03:15:28.543Z,102170.92
2018-05-23T03:17:56.910Z,102179.52
2018-05-23T03:20:25.326Z,102175.00
2018-05-23T03:22:57.744Z,102178.50
2018-05-23T03:34:16.370Z,102187.19
2018-05-23T03:37:06.679Z,102191.03
2018-05-23T03:39:42.418Z,102191.27
2018-05-23T03:56:45.230Z,102201.15
2018-05-23T03:59:13.588Z,102197.13
2018-05-23T04:01:52.785Z,102204.08
2018-05-23T04:04:31.828Z,102205.17
2018-05-23T04:09:56.962Z,102212.08
2018-05-23T04:12:24.423Z,102211.60
2018-05-23T04:14:51.862Z,102213.99
2018-05-23T04:17:19.325Z,102223.23
2018-05-23T04:19:46.771Z,102222.95
2018-05-23T04:22:14.249Z,102230.45
2018-05-23T04:24:41.686Z,102237.37
2018-05-23T04:27:09.139Z,102234.44
2018-05-23T04:29:36.599Z,102235.68
2018-05-23T04:32:04.023Z,102236.31
2018-05-23T04:34:32.474Z,102241.79
2018-05-23T04:36:59.894Z,102236.79
2018-05-23T04:39:28.302Z,102244.31
2018-05-23T04:41:55.734Z,102248.47
2018-05-23T04:44:23.192Z,102243.23
2018-05-23T04:46:50.622Z,102242.08
2018-05-23T04:49:18.086Z,102244.88
2018-05-23T04:51:45.523Z,102250.84
2018-05-23T04:54:12.974Z,102251.90
2018-05-23T04:56:41.323Z,102250.30
2018-05-23T04:59:08.790Z,102256.98
2018-05-23T05:01:36.231Z,102258.06
2018-05-23T05:04:03.683Z,102258.58
2018-05-23T05:06:32.027Z,102257.66
2018-05-23T05:08:59.505Z,102270.80
2018-05-23T05:11:26.931Z,102266.94
2018-05-23T05:13:54.683Z,102271.86
2018-05-23T06:38:19.181Z,102359.59
2018-05-23T06:40:46.598Z,102363.58
2018-05-23T06:43:14.045Z,102359.16
2018-05-23T06:45:45.007Z,102363.17
2018-05-23T06:48:12.455Z,102369.44
2018-05-23T06:50:40.783Z,102365.45
2018-05-23T06:53:08.242Z,102372.02
2018-05-23T06:55:35.681Z,102372.97
2018-05-23T06:58:03.074Z,102367.92
2018-05-23T07:00:33.762Z,102377.58
2018-05-23T07:03:03.126Z,102383.69
2018-05-23T07:05:32.533Z,102380.55
2018-05-23T07:08:00.861Z,102378.56
2018-05-23T07:10:28.301Z,102384.88
2018-05-23T07:12:55.713Z,102385.47
2018-05-23T07:15:23.162Z,102389.62
2018-05-23T07:17:56.232Z,102397.55
2018-05-23T07:20:23.590Z,102397.84
2018-05-23T07:22:51.006Z,102402.50
2018-05-23T07:25:19.458Z,102401.62
2018-05-23T07:27:46.878Z,102399.76
2018-05-23T07:30:14.318Z,102401.39
2018-05-23T07:32:41.735Z,102402.80
2018-05-23T07:35:09.178Z,102410.35
2018-05-23T07:37:36.596Z,102411.12
2018-05-23T07:40:04.038Z,102413.11
2018-05-23T07:42:31.454Z,102419.12
2018-05-23T07:44:58.950Z,102418.42
2018-05-23T07:47:26.406Z,102428.94
2018-05-23T07:50:08.870Z,102417.97
2018-05-23T07:52:36.316Z,102423.09
2018-05-23T07:55:04.698Z,102421.23
2018-05-23T07:57:32.150Z,102429.17
2018-05-23T07:59:59.573Z,102429.78
2018-05-23T08:02:28.001Z,102432.08
2018-05-23T08:04:55.453Z,102430.01
2018-05-23T08:07:22.908Z,102432.64
2018-05-23T08:09:50.320Z,102433.58
2018-05-23T08:12:17.770Z,102428.53
2018-05-23T08:14:45.210Z,102428.23
2018-05-23T08:17:12.659Z,102432.06
2018-05-23T08:19:40.076Z,102432.61
2018-05-23T08:22:07.528Z,102434.48
2018-05-23T08:24:34.945Z,102435.67
2018-05-23T08:27:03.386Z,102438.38
2018-05-23T08:29:30.856Z,102449.55
2018-05-23T08:31:58.271Z,102445.72
2018-05-23T08:34:25.712Z,102446.36
2018-05-23T08:36:53.126Z,102447.21
2018-05-23T08:39:20.574Z,102451.27
2018-05-23T08:41:48.003Z,102449.41
2018-05-23T08:44:15.446Z,102455.09
2018-05-23T08:46:42.859Z,102456.97
2018-05-23T08:49:10.302Z,102453.87
2018-05-23T08:51:38.658Z,102454.56
2018-05-23T08:54:06.093Z,102456.16
2018-05-23T08:56:33.518Z,102460.31
2018-05-23T08:59:01.967Z,102456.59
2018-05-23T09:01:29.391Z,102455.80
2018-05-23T09:03:57.201Z,102460.89
2018-05-23T09:06:24.630Z,102457.05
2018-05-23T09:08:52.069Z,102456.84
2018-05-23T09:11:19.521Z,102462.63
2018-05-23T09:13:47.919Z,102462.44
2018-05-23T09:16:15.363Z,102459.31
2018-05-23T09:18:42.798Z,102471.87
2018-05-23T09:21:10.237Z,102470.06
2018-05-23T09:23:37.655Z,102477.45
2018-05-23T09:26:10.835Z,102472.47
2018-05-23T09:28:38.248Z,102476.09
2018-05-23T09:31:07.708Z,102476.38
2018-05-23T09:33:35.141Z,102471.92
2018-05-23T09:36:03.580Z,102475.71
2018-05-23T09:38:32.926Z,102475.84
2018-05-23T09:41:01.337Z,102477.48
2018-05-23T09:43:29.693Z,102480.59
2018-05-23T09:45:57.139Z,102481.17
2018-05-23T09:48:24.549Z,102481.77
2018-05-23T09:50:51.989Z,102480.98
2018-05-23T09:53:19.457Z,102488.36
2018-05-23T09:55:50.749Z,102492.86
2018-05-23T09:58:18.193Z,102497.94
2018-05-23T10:00:45.609Z,102498.19
2018-05-23T10:03:13.051Z,102501.19
2018-05-23T10:05:40.482Z,102496.52
2018-05-23T10:08:08.882Z,102508.23
2018-05-23T10:10:36.314Z,102500.86
2018-05-23T10:13:03.751Z,102506.37
2018-05-23T10:15:31.170Z,102498.94
2018-05-23T10:17:58.612Z,102510.86
2018-05-23T10:20:26.036Z,102507.92
2018-05-23T10:22:53.473Z,102507.92
2018-05-23T10:25:22.910Z,102506.09
2018-05-23T10:27:50.324Z,102510.47
2018-05-23T10:30:17.761Z,102513.65
2018-05-23T10:32:45.174Z,102514.17
2018-05-23T10:35:12.609Z,102516.69
2018-05-23T10:37:40.021Z,102516.38
2018-05-23T10:40:07.472Z,102514.29
2018-05-23T10:42:34.878Z,102515.33
2018-05-23T10:45:02.317Z,102512.14
2018-05-23T10:47:29.737Z,102518.17
2018-05-23T10:49:57.197Z,102525.46
2018-05-23T10:52:24.619Z,102520.25
2018-05-23T10:54:52.066Z,102521.40
2018-05-23T10:57:20.442Z,102531.71
2018-05-23T10:59:47.879Z,102527.41
2018-05-23T11:02:15.306Z,102538.41
2018-05-23T11:04:42.748Z,102524.86
2018-05-23T11:07:12.111Z,102536.88
2018-05-23T11:09:39.582Z,102538.34
2018-05-23T11:12:07.019Z,102537.61
2018-05-23T11:14:34.435Z,102541.33
2018-05-23T11:17:01.874Z,102543.73
2018-05-23T11:19:29.311Z,102544.36
2018-05-23T11:21:56.761Z,102546.38
2018-05-23T11:24:24.174Z,102549.56
2018-05-23T11:26:54.122Z,102543.78
2018-05-23T11:29:24.954Z,102549.65
2018-05-23T11:31:52.394Z,102545.27
2018-05-23T11:34:20.841Z,102549.42
2018-05-23T11:36:48.322Z,102551.06
2018-05-23T11:39:15.738Z,102551.59
2018-05-23T11:41:44.182Z,102547.59
2018-05-23T11:44:11.534Z,102546.81
2018-05-23T11:46:38.998Z,102552.37
2018-05-23T11:49:06.399Z,102544.64
2018-05-23T11:51:33.831Z,102554.25
2018-05-23T11:54:01.242Z,102548.56
2018-05-23T11:56:28.741Z,102547.51
2018-05-23T11:58:56.194Z,102549.34
2018-05-23T12:01:23.610Z,102548.00
2018-05-23T12:03:52.037Z,102542.63
2018-05-23T12:06:19.468Z,102544.42
2018-05-23T12:08:46.905Z,102541.93
2018-05-23T12:11:14.317Z,102545.11
2018-05-23T12:13:41.762Z,102536.83
2018-05-23T12:16:09.174Z,102542.87
2018-05-23T12:18:36.630Z,102539.86
2018-05-23T12:21:06.050Z,102539.63
2018-05-23T12:23:33.485Z,102533.79
2018-05-23T12:26:00.897Z,102539.48
2018-05-23T12:28:28.353Z,102542.95
2018-05-23T12:30:55.770Z,102539.16
2018-05-23T12:33:23.182Z,102547.23
2018-05-23T12:35:50.637Z,102546.41
2018-05-23T12:38:19.075Z,102547.62
2018-05-23T12:40:46.521Z,102540.94
2018-05-23T12:43:13.934Z,102551.22
2018-05-23T12:45:41.369Z,102552.22
2018-05-23T12:48:08.790Z,102552.18
2018-05-23T12:50:36.234Z,102555.56
2018-05-23T12:53:03.657Z,102553.86
2018-05-23T12:55:32.010Z,102549.26
2018-05-23T12:57:59.424Z,102554.25
2018-05-23T13:00:27.896Z,102560.56
2018-05-23T13:02:55.306Z,102552.40
2018-05-23T13:05:22.729Z,102555.48
2018-05-23T13:07:50.226Z,102549.13
2018-05-23T13:10:17.653Z,102547.55
2018-05-23T13:12:45.142Z,102557.17
2018-05-23T13:15:12.526Z,102553.27
2018-05-23T13:17:41.897Z,102561.05
2018-05-23T13:20:09.333Z,102549.98
2018-05-23T13:22:36.778Z,102554.57
2018-05-23T13:25:04.778Z,102545.87
2018-05-23T13:29:59.898Z,102546.17
2018-05-23T13:32:27.340Z,102554.45
2018-05-23T13:34:54.771Z,102549.73
2018-05-23T13:37:22.213Z,102544.28
2018-05-23T13:39:49.665Z,102546.75
2018-05-23T13:42:17.993Z,102539.47
2018-05-23T13:44:45.415Z,102539.70
2018-05-23T13:47:14.781Z,102529.32
2018-05-23T13:49:42.218Z,102535.98
2018-05-23T13:52:09.633Z,102533.40
2018-05-23T13:54:37.090Z,102531.47
2018-05-23T13:57:04.502Z,102538.22
2018-05-23T13:59:31.943Z,102526.25
2018-05-23T14:01:59.366Z,102531.83
2018-05-23T14:04:26.817Z,102531.71
2018-05-23T14:06:54.225Z,102533.39
2018-05-23T14:09:21.670Z,102526.23
2018-05-23T14:11:50.102Z,102521.16
2018-05-23T14:14:17.550Z,102518.81
2018-05-23T14:16:44.959Z,102513.92
2018-05-23T14:19:12.502Z,102525.70
2018-05-23T14:21:39.817Z,102520.55
2018-05-23T14:24:07.253Z,102523.49
2018-05-23T14:26:34.673Z,102524.25
2018-05-23T14:29:02.114Z,102513.56
2018-05-23T14:31:29.537Z,102520.12
2018-05-23T14:33:57.954Z,102513.91
2018-05-23T14:36:26.333Z,102511.19
2018-05-23T14:38:54.479Z,102503.72
2018-05-23T14:41:22.822Z,102510.08
2018-05-23T14:43:50.307Z,102507.03
2018-05-23T14:46:19.594Z,102511.92
2018-05-23T14:48:46.997Z,102505.16
2018-05-23T14:51:14.446Z,102501.89
2018-05-23T14:53:41.857Z,102502.47
2018-05-23T14:56:16.721Z,102506.89
2018-05-23T14:58:45.090Z,102499.06
2018-05-23T15:01:12.535Z,102504.52
2018-05-23T15:03:39.945Z,102496.83
2018-05-23T15:06:07.480Z,102508.44
2018-05-23T15:08:34.968Z,102502.41
2018-05-23T15:11:02.322Z,102507.60
2018-05-23T15:13:30.652Z,102499.81
2018-05-23T15:15:59.054Z,102503.89
2018-05-23T15:18:28.434Z,102504.66
2018-05-23T15:20:55.878Z,102500.90
2018-05-23T15:23:23.293Z,102507.09
2018-05-23T15:25:50.752Z,102505.28
2018-05-23T15:28:18.167Z,102512.77
2018-05-23T15:30:46.541Z,102505.84
2018-05-23T15:33:13.984Z,102505.19
2018-05-23T15:35:41.414Z,102501.47
2018-05-23T15:38:09.781Z,102499.37
2018-05-23T15:40:39.122Z,102509.24
2018-05-23T15:43:06.559Z,102501.42
2018-05-23T15:45:33.978Z,102497.81
2018-05-23T15:48:01.423Z,102497.95
2018-05-23T15:50:28.838Z,102494.08
2018-05-23T15:52:56.278Z,102496.78
2018-05-23T15:55:23.691Z,102497.80
2018-05-23T15:57:52.069Z,102497.02
2018-05-23T16:00:19.486Z,102487.79
2018-05-23T16:02:46.928Z,102495.70
2018-05-23T16:05:14.338Z,102490.24
2018-05-23T16:07:41.785Z,102491.92
2018-05-23T16:10:09.197Z,102490.09
2018-05-23T16:12:37.623Z,102493.63
2018-05-23T16:15:05.129Z,102495.97
2018-05-23T16:17:32.505Z,102494.58
2018-05-23T16:19:59.949Z,102490.45
2018-05-23T16:22:27.362Z,102494.14
2018-05-23T16:24:54.957Z,102491.89
2018-05-23T16:27:22.381Z,102487.59
2018-05-23T16:29:49.839Z,102489.92
2018-05-23T16:32:17.245Z,102485.52
2018-05-23T16:34:44.690Z,102490.96
2018-05-23T16:37:12.101Z,102494.67
2018-05-23T16:39:39.549Z,102492.28
2018-05-23T16:42:07.039Z,102492.02
2018-05-23T16:44:34.444Z,102492.55
2018-05-23T16:47:01.845Z,102494.75
2018-05-23T16:49:29.278Z,102500.91
2018-05-23T16:51:56.689Z,102488.47
2018-05-23T16:54:24.136Z,102501.80
2018-05-23T16:56:51.559Z,102497.84
2018-05-23T16:59:19.011Z,102494.26
2018-05-23T17:01:46.421Z,102492.92
2018-05-23T17:04:13.844Z,102485.17
2018-05-23T17:06:42.276Z,102482.80
2018-05-23T17:09:09.683Z,102477.88
2018-05-23T17:11:37.127Z,102487.20
2018-05-23T17:14:04.538Z,102488.31
2018-05-23T17:16:32.107Z,102495.50
2018-05-23T17:18:59.524Z,102499.47
2018-05-23T17:21:26.992Z,102500.72
2018-05-23T17:23:54.413Z,102505.42
2018-05-23T17:26:21.865Z,102498.89
2018-05-23T17:28:49.303Z,102505.59
2018-05-23T17:31:16.749Z,102506.19
2018-05-23T17:33:44.178Z,102510.66
2018-05-23T17:36:11.630Z,102503.16
2018-05-23T17:38:40.018Z,102510.42
2018-05-23T17:41:07.427Z,102508.89
2018-05-23T17:43:34.892Z,102514.09
2018-05-23T17:46:02.307Z,102514.14
2018-05-23T17:48:29.749Z,102509.67
2018-05-23T17:50:57.157Z,102517.80
2018-05-23T17:53:24.610Z,102515.41
2018-05-23T17:55:52.023Z,102515.23
2018-05-23T17:58:19.466Z,102521.11
2018-05-23T18:00:48.878Z,102523.05
2018-05-23T18:03:16.326Z,102524.50
2018-05-23T18:05:43.767Z,102522.95
2018-05-23T18:08:11.206Z,102520.44
2018-05-23T18:10:38.617Z,102522.28
2018-05-23T18:13:06.063Z,102519.09
2018-05-23T18:15:33.499Z,102522.77
2018-05-23T18:18:01.910Z,102526.33
2018-05-23T18:20:29.350Z,102527.31
2018-05-23T18:22:56.792Z,102528.64
2018-05-23T18:25:25.181Z,102526.11
2018-05-23T18:28:00.125Z,102539.13
2018-05-23T18:30:27.559Z,102533.49
2018-05-23T18:32:56.343Z,102538.54
2018-05-23T18:35:24.755Z,102530.17
2018-05-23T18:37:52.186Z,102536.70
2018-05-23T18:40:19.641Z,102537.70
2018-05-23T18:42:47.079Z,102536.48
2018-05-23T18:45:14.522Z,102534.55
2018-05-23T18:47:41.942Z,102536.82
2018-05-23T18:50:09.389Z,102535.56
2018-05-23T18:52:36.823Z,102536.97
2018-05-23T18:55:04.259Z,102547.33
2018-05-23T18:57:32.166Z,102548.94
2018-05-23T19:00:04.805Z,102547.11
2018-05-23T19:02:32.222Z,102552.61
2018-05-23T19:04:59.707Z,102551.86
2018-05-23T19:07:28.203Z,102558.23
2018-05-23T19:09:56.626Z,102553.58
2018-05-23T19:12:24.102Z,102561.36
2018-05-23T19:14:51.543Z,102565.20
2018-05-23T19:17:18.974Z,102568.38
2018-05-23T19:19:46.507Z,102567.30
2018-05-23T19:22:15.250Z,102571.64
2018-05-23T19:24:42.698Z,102571.30
2018-05-23T19:27:10.150Z,102571.42
2018-05-23T19:29:37.594Z,102570.74
2018-05-23T19:32:05.041Z,102576.38
2018-05-23T19:34:32.451Z,102577.09
2018-05-23T19:36:59.874Z,102579.20
2018-05-23T19:39:27.329Z,102582.48
2018-05-23T19:41:54.759Z,102577.59
2018-05-23T19:44:22.189Z,102583.33
2018-05-23T19:46:49.606Z,102588.44
2018-05-23T19:49:17.030Z,102589.77
2018-05-23T19:51:44.478Z,102586.75
2018-05-23T19:54:11.893Z,102586.09
2018-05-23T19:56:39.435Z,102588.91
2018-05-23T19:59:06.758Z,102596.86
2018-05-23T20:01:34.194Z,102589.10
2018-05-23T20:04:01.613Z,102589.87
2018-05-23T20:06:29.967Z,102591.88
2018-05-23T20:08:57.381Z,102592.11
2018-05-23T20:11:24.818Z,102596.30
2018-05-23T20:13:52.239Z,102598.16
2018-05-23T20:16:20.630Z,102598.95
2018-05-23T20:18:48.961Z,102603.13
2018-05-23T20:21:17.382Z,102600.53
2018-05-23T20:23:44.801Z,102609.09
2018-05-23T20:26:12.237Z,102603.02
2018-05-23T20:28:39.658Z,102605.95
2018-05-23T20:31:07.109Z,102608.82
2018-05-23T20:33:34.522Z,102606.37
2018-05-23T20:36:01.962Z,102607.57
2018-05-23T20:38:29.389Z,102611.66
2018-05-23T20:40:56.870Z,102611.06
2018-05-23T20:43:25.289Z,102613.16
2018-05-23T20:45:52.708Z,102608.22
2018-05-23T20:48:21.063Z,102606.51
2018-05-23T20:50:48.477Z,102606.54
2018-05-23T20:53:15.921Z,102605.85
2018-05-23T20:55:43.338Z,102604.14
2018-05-23T20:58:10.786Z,102605.25
2018-05-23T21:00:38.216Z,102613.25
2018-05-23T21:03:06.607Z,102602.25
2018-05-23T21:05:34.024Z,102606.42
2018-05-23T21:08:01.469Z,102609.65
2018-05-23T21:10:28.895Z,102607.34
2018-05-23T21:12:56.342Z,102613.83
2018-05-23T21:15:23.781Z,102606.52
2018-05-23T21:17:52.116Z,102610.09
2018-05-23T21:20:19.533Z,102615.03
2018-05-23T21:22:47.881Z,102620.95
2018-05-23T21:25:15.290Z,102625.00
2018-05-23T21:27:42.790Z,102624.67
2018-05-23T21:30:10.166Z,102623.98
2018-05-23T21:32:37.582Z,102624.86
2018-05-23T21:35:05.022Z,102630.56
2018-05-23T21:37:32.433Z,102630.52
2018-05-23T21:39:59.881Z,102630.25
2018-05-23T21:42:27.302Z,102636.22
2018-05-23T21:44:54.742Z,102636.31
2018-05-23T21:47:22.159Z,102637.77
2018-05-23T21:49:49.698Z,102636.80
2018-05-23T21:52:17.055Z,102640.20
2018-05-23T21:54:44.497Z,102643.05
2018-05-23T21:57:11.922Z,102649.31
2018-05-23T21:59:39.362Z,102646.22
2018-05-23T22:02:06.775Z,102644.83
2018-05-23T22:04:34.218Z,102648.44
2018-05-23T22:07:02.596Z,102647.77
2018-05-23T22:09:30.031Z,102649.18
2018-05-23T22:11:57.441Z,102652.82
2018-05-23T22:14:24.887Z,102650.98
2018-05-23T22:16:52.318Z,102653.66
2018-05-23T22:19:19.741Z,102661.04
2018-05-23T22:21:47.181Z,102659.61
2018-05-23T22:24:14.601Z,102657.64
2018-05-23T22:26:42.990Z,102656.91
2018-05-23T22:29:10.410Z,102659.41
2018-05-23T22:31:37.858Z,102660.37
2018-05-23T22:34:05.278Z,102661.97
2018-05-23T22:36:32.723Z,102666.29
2018-05-23T22:39:00.146Z,102664.31
2018-05-23T22:41:28.549Z,102667.17
2018-05-23T22:43:55.962Z,102662.41
2018-05-23T22:46:23.409Z,102665.14
2018-05-23T22:48:50.825Z,102670.29
2018-05-23T22:51:19.195Z,102664.14
2018-05-23T22:53:48.583Z,102663.20
2018-05-23T22:56:16.018Z,102662.52
2018-05-23T22:58:43.433Z,102662.39
2018-05-23T23:01:10.891Z,102663.23
2018-05-23T23:03:38.304Z,102660.42
2018-05-23T23:06:05.710Z,102665.14
2018-05-23T23:08:34.153Z,102666.71
2018-05-23T23:11:01.572Z,102668.40
2018-05-23T23:13:29.024Z,102668.13
2018-05-23T23:15:58.350Z,102667.92
2018-05-23T23:18:25.798Z,102664.08
2018-05-23T23:20:53.219Z,102663.73
2018-05-23T23:23:20.655Z,102668.03
2018-05-23T23:25:49.013Z,102659.36
2018-05-23T23:28:16.475Z,102657.93
2018-05-23T23:30:43.913Z,102654.59
2018-05-23T23:33:11.389Z,102658.19
2018-05-23T23:35:38.833Z,102649.02
2018-05-23T23:38:06.294Z,102655.98
2018-05-23T23:40:33.722Z,102652.70
2018-05-23T23:43:01.201Z,102648.77
2018-05-23T23:45:28.633Z,102659.19
2018-05-23T23:47:56.093Z,102650.78
2018-05-23T23:50:23.525Z,102655.91
2018-05-23T23:52:50.988Z,102654.86
2018-05-23T23:55:18.401Z,102655.40
2018-05-23T23:57:45.849Z,102657.62
